Time;durP1;ratioP1;P1;durP2;ratioP2;P2;SDS_P1;SDS_P2;PMS_P1;PMS_P2;Temp;Humidity;BMP_temperature;BMP_pressure;BME280_temperature;BME280_humidity;BME280_pressure;Samples;Min_cycle;Max_cycle;Signal;HPM_P1;HPM_P2
2021/09/30 00:00:04;;;;;;;8.50;3.47;;;;;;;9.21;91.42;102388.19;5052561;28;20021;-34
2021/09/30 00:02:29;;;;;;;7.45;3.53;;;;;;;9.10;91.38;102380.56;5053166;28;20255;-34
2021/09/30 00:04:55;;;;;;;8.67;3.17;;;;;;;9.13;91.44;102388.28;5052278;28;20021;-34
2021/09/30 00:07:20;;;;;;;5.17;3.20;;;;;;;9.09;91.13;102400.47;5052570;28;20021;-34
2021/09/30 00:09:47;;;;;;;8.30;3.10;;;;;;;9.07;91.73;102405.19;5052199;28;20029;-34
2021/09/30 00:12:24;;;;;;;7.25;3.60;;;;;;;9.02;92.06;102406.56;5052652;28;20024;-34
2021/09/30 00:15:32;;;;;;;6.78;3.00;;;;;;;8.96;91.25;102412.72;5052938;28;20029;-34
2021/09/30 00:52:47;;;;;;;10.02;3.90;;;;;;;8.74;91.94;102429.78;4994025;28;20262;-35
2021/09/30 01:18:31;;;;;;;7.60;2.85;;;;;;;8.68;92.01;102438.56;4994629;28;20041;-34
2021/09/30 01:46:47;;;;;;;7.03;3.30;;;;;;;8.43;91.44;102436.03;5033136;28;20052;-34
2021/09/30 02:58:55;;;;;;;10.90;2.95;;;;;;;8.14;91.53;102469.00;5053354;28;20108;-34
2021/09/30 03:00:51;;;;;;;7.35;3.00;;;;;;;8.00;91.74;102449.03;5048575;28;20037;-35
2021/09/30 03:03:21;;;;;;;7.53;2.78;;;;;;;8.07;91.66;102464.50;5053779;28;20021;-35
2021/09/30 03:05:52;;;;;;;10.40;2.97;;;;;;;8.07;91.65;102469.88;5053011;28;20453;-35
2021/09/30 03:08:18;;;;;;;10.23;3.10;;;;;;;8.09;91.38;102466.00;5053427;28;20023;-35
2021/09/30 03:10:48;;;;;;;9.27;3.30;;;;;;;8.04;91.60;102451.38;5053715;28;20021;-35
2021/09/30 03:13:14;;;;;;;7.20;2.92;;;;;;;8.10;91.67;102473.06;5053394;28;20409;-35
2021/09/30 03:15:47;;;;;;;10.53;2.90;;;;;;;8.07;91.38;102475.28;5051590;28;20121;-35
2021/09/30 03:18:28;;;;;;;9.13;2.88;;;;;;;8.02;90.97;102480.34;5053008;28;20028;-35
2021/09/30 03:23:33;;;;;;;12.18;3.75;;;;;;;7.94;91.79;102465.03;5052985;28;20040;-34
2021/09/30 03:25:59;;;;;;;8.85;2.63;;;;;;;7.87;91.53;102473.00;5053197;28;20071;-35
2021/09/30 03:28:26;;;;;;;;;;;;;;;8.05;90.84;102477.28;5053834;28;20040;-35
2021/09/30 03:30:53;;;;;;;6.32;2.38;;;;;;;7.94;91.35;102482.03;5052850;28;20308;-35
2021/09/30 03:33:19;;;;;;;6.95;2.90;;;;;;;7.94;90.64;102476.66;5053327;28;20185;-35
2021/09/30 03:35:45;;;;;;;8.82;3.08;;;;;;;7.93;91.02;102484.91;5053091;28;20368;-35
2021/09/30 03:38:10;;;;;;;8.43;3.20;;;;;;;7.95;91.22;102488.25;5052882;28;20032;-35
2021/09/30 03:40:37;;;;;;;8.77;2.60;;;;;;;7.94;91.40;102489.28;5052971;28;20064;-35
2021/09/30 03:43:03;;;;;;;8.98;3.08;;;;;;;7.92;91.00;102494.84;5052988;28;20028;-34
2021/09/30 03:45:29;;;;;;;5.85;2.53;;;;;;;7.87;90.93;102493.69;5052729;28;20017;-35
2021/09/30 03:47:54;;;;;;;8.63;2.53;;;;;;;7.89;91.27;102497.88;5052983;28;20021;-35
2021/09/30 03:50:23;;;;;;;5.30;2.17;;;;;;;7.91;91.01;102495.03;5052895;28;20327;-35
2021/09/30 03:53:01;;;;;;;12.68;2.63;;;;;;;7.84;90.14;102502.94;5053528;28;20259;-35
2021/09/30 04:00:47;;;;;;;9.50;2.75;;;;;;;7.78;90.74;102508.19;5057245;28;20117;-35
2021/09/30 04:03:12;;;;;;;7.22;2.35;;;;;;;7.79;90.89;102509.88;5057119;28;20440;-34
2021/09/30 04:05:37;;;;;;;6.20;2.20;;;;;;;7.77;90.20;102510.06;5056405;28;20024;-35
2021/09/30 04:08:03;;;;;;;11.17;3.07;;;;;;;7.78;90.33;102524.34;5056671;28;20067;-34
2021/09/30 04:10:28;;;;;;;8.27;2.60;;;;;;;7.73;90.11;102516.78;5056765;28;20519;-34
2021/09/30 04:12:54;;;;;;;5.70;2.60;;;;;;;7.75;90.35;102529.06;5057024;28;20048;-34
2021/09/30 04:15:19;;;;;;;9.57;2.83;;;;;;;7.75;89.88;102522.81;5056498;28;20025;-35
2021/09/30 04:17:44;;;;;;;4.70;1.90;;;;;;;7.71;89.89;102518.78;5056483;28;20016;-35
2021/09/30 04:20:10;;;;;;;11.67;3.27;;;;;;;7.69;90.15;102520.81;5056103;28;20021;-35
2021/09/30 04:22:36;;;;;;;6.78;2.65;;;;;;;7.73;90.33;102535.63;5056770;28;20156;-34
2021/09/30 04:25:02;;;;;;;7.20;3.03;;;;;;;7.70;89.88;102541.34;5056199;28;20387;-34
2021/09/30 04:27:27;;;;;;;11.98;3.15;;;;;;;7.64;90.61;102528.59;5056227;28;20017;-34
2021/09/30 04:29:52;;;;;;;4.70;2.23;;;;;;;7.52;90.40;102519.19;5055196;28;20357;-42
2021/09/30 04:32:17;;;;;;;7.27;2.70;;;;;;;7.67;90.31;102550.63;5056449;28;20059;-34
2021/09/30 04:34:43;;;;;;;10.47;3.30;;;;;;;7.56;90.38;102532.09;5054931;28;20127;-35
2021/09/30 04:37:08;;;;;;;7.27;2.40;;;;;;;7.66;90.34;102548.97;5056121;28;20021;-34
2021/09/30 04:39:35;;;;;;;6.93;2.73;;;;;;;7.65;89.81;102547.25;5055993;28;20410;-34
2021/09/30 04:42:00;;;;;;;7.07;2.40;;;;;;;7.53;90.18;102543.25;5056200;28;20063;-34
2021/09/30 04:44:26;;;;;;;9.47;2.37;;;;;;;7.61;90.43;102554.00;5055894;28;20024;-34
2021/09/30 04:46:52;;;;;;;7.70;2.60;;;;;;;7.61;90.34;102554.00;5055909;28;20017;-34
2021/09/30 04:49:17;;;;;;;6.80;2.55;;;;;;;7.55;91.25;102535.81;5055803;28;20040;-35
2021/09/30 04:51:42;;;;;;;13.27;2.93;;;;;;;7.49;90.33;102536.50;5055934;28;20365;-34
2021/09/30 04:54:08;;;;;;;7.93;2.67;;;;;;;7.64;90.07;102550.13;5055716;28;20025;-34
2021/09/30 04:56:34;;;;;;;8.45;3.17;;;;;;;7.46;89.80;102523.38;5055652;28;20465;-35
2021/09/30 04:59:01;;;;;;;7.68;2.20;;;;;;;7.54;89.87;102536.00;5055883;28;20025;-35
2021/09/30 05:01:26;;;;;;;11.13;2.58;;;;;;;7.51;90.19;102541.72;5056123;28;20016;-35
2021/09/30 05:03:52;;;;;;;6.80;2.28;;;;;;;7.54;90.92;102547.59;5055255;28;20021;-34
2021/09/30 05:06:17;;;;;;;10.77;2.30;;;;;;;7.50;90.35;102554.34;5054618;28;20040;-34
2021/09/30 05:08:45;;;;;;;6.10;2.77;;;;;;;7.36;90.54;102533.47;5055462;28;20021;-35
2021/09/30 05:11:10;;;;;;;8.32;2.95;;;;;;;7.51;90.54;102557.84;5055970;28;20262;-34
2021/09/30 05:13:43;;;;;;;5.80;2.07;;;;;;;7.37;90.72;102543.22;5054803;28;20373;-34
2021/09/30 05:16:13;;;;;;;8.85;2.30;;;;;;;7.45;90.66;102560.22;5055327;28;20703;-35
2021/09/30 05:18:41;;;;;;;8.50;2.53;;;;;;;7.43;90.92;102564.94;5055340;28;20029;-35
2021/09/30 05:21:07;;;;;;;6.72;2.38;;;;;;;7.30;91.02;102558.38;5054240;28;20029;-35
2021/09/30 05:23:32;;;;;;;7.20;2.20;;;;;;;7.40;91.54;102557.19;5055386;28;20021;-35
2021/09/30 05:25:58;;;;;;;9.00;2.27;;;;;;;7.33;90.70;102553.50;5055088;28;20067;-35
2021/09/30 05:28:23;;;;;;;8.70;1.93;;;;;;;7.37;90.34;102548.59;5054897;28;20029;-34
2021/09/30 05:30:48;;;;;;;8.53;2.07;;;;;;;7.48;91.30;102559.06;5055546;28;20072;-34
2021/09/30 05:33:14;;;;;;;7.03;2.10;;;;;;;7.43;90.62;102570.31;5055450;28;20354;-35
2021/09/30 05:35:39;;;;;;;4.57;1.93;;;;;;;7.33;90.46;102556.19;5055260;28;20027;-34
2021/09/30 05:38:04;;;;;;;9.00;2.77;;;;;;;7.40;91.08;102559.88;5055469;28;20111;-35
2021/09/30 05:40:31;;;;;;;8.77;2.33;;;;;;;7.42;90.99;102568.66;5054807;28;20025;-35
2021/09/30 05:42:58;;;;;;;5.43;2.42;;;;;;;7.39;91.58;102550.13;5054724;28;20027;-34
2021/09/30 05:45:23;;;;;;;6.03;2.30;;;;;;;7.40;90.93;102557.19;5054777;28;20064;-34
2021/09/30 05:47:49;;;;;;;5.80;2.07;;;;;;;7.39;90.72;102557.38;5054814;28;20053;-35
2021/09/30 05:50:15;;;;;;;5.80;2.43;;;;;;;7.35;91.32;102569.47;5054757;28;20063;-35
2021/09/30 05:52:41;;;;;;;6.82;1.92;;;;;;;7.41;90.49;102558.03;5054934;28;20024;-34
2021/09/30 05:55:07;;;;;;;8.02;2.25;;;;;;;7.44;90.62;102560.41;5054371;28;20104;-35
2021/09/30 05:57:33;;;;;;;6.82;2.13;;;;;;;7.44;90.34;102563.09;5054851;28;20028;-34
2021/09/30 06:00:21;;;;;;;6.93;2.15;;;;;;;7.44;90.49;102557.72;5054582;28;20029;-34
2021/09/30 06:11:12;;;;;;;6.72;2.53;;;;;;;7.40;90.67;102543.72;5054605;28;20539;-34
2021/09/30 06:14:21;;;;;;;6.18;2.90;;;;;;;7.53;90.12;102563.94;5054462;28;20105;-35
2021/09/30 06:16:26;;;;;;;8.55;2.40;;;;;;;7.51;90.68;102560.56;5051423;28;20044;-34
2021/09/30 06:18:52;;;;;;;7.22;2.15;;;;;;;7.54;90.45;102565.59;5054147;28;20029;-35
2021/09/30 06:21:18;;;;;;;9.88;2.50;;;;;;;7.48;90.62;102551.81;5054413;28;20410;-35
2021/09/30 06:23:43;;;;;;;6.97;2.33;;;;;;;7.51;90.79;102544.41;5053770;28;20104;-35
2021/09/30 06:26:09;;;;;;;8.33;1.97;;;;;;;7.61;90.17;102567.47;5054265;28;20021;-35
2021/09/30 06:28:34;;;;;;;6.45;2.70;;;;;;;7.60;90.21;102559.53;5054235;28;20035;-35
2021/09/30 06:31:00;;;;;;;7.50;2.63;;;;;;;7.59;89.75;102557.88;5053876;28;20376;-35
2021/09/30 06:33:26;;;;;;;6.45;2.53;;;;;;;7.68;90.89;102564.94;5053711;28;20036;-34
2021/09/30 06:35:51;;;;;;;4.03;1.73;;;;;;;7.69;90.29;102572.81;5054074;28;20055;-35
2021/09/30 06:38:17;;;;;;;7.18;2.67;;;;;;;7.73;90.77;102565.25;5053767;28;20035;-35
2021/09/30 06:40:42;;;;;;;7.70;2.40;;;;;;;7.78;91.32;102570.13;5053751;28;20116;-35
2021/09/30 06:43:08;;;;;;;6.37;2.23;;;;;;;7.85;92.11;102568.44;5053363;28;20033;-35
2021/09/30 06:45:33;;;;;;;6.73;2.30;;;;;;;7.83;91.85;102576.69;5053435;28;20468;-35
2021/09/30 06:47:59;;;;;;;7.00;2.70;;;;;;;7.80;91.01;102573.50;5053845;28;20021;-35
2021/09/30 06:50:25;;;;;;;5.90;2.27;;;;;;;7.80;91.68;102566.25;5053380;28;20025;-34
2021/09/30 06:52:50;;;;;;;10.07;2.85;;;;;;;7.81;91.00;102575.16;5054250;28;20025;-35
2021/09/30 06:55:15;;;;;;;7.50;2.37;;;;;;;7.91;91.23;102584.75;5053742;28;20372;-35
2021/09/30 06:57:41;;;;;;;6.20;2.33;;;;;;;7.99;90.31;102576.66;5053746;28;20021;-35
2021/09/30 07:00:09;;;;;;;9.05;2.78;;;;;;;8.03;90.27;102576.31;5053417;28;20106;-35
2021/09/30 07:02:40;;;;;;;9.30;2.70;;;;;;;8.08;90.33;102573.94;5053412;28;20017;-34
2021/09/30 07:05:08;;;;;;;7.20;2.38;;;;;;;8.19;90.27;102577.09;5053662;28;20028;-34
2021/09/30 07:07:34;;;;;;;10.93;2.88;;;;;;;8.29;90.04;102586.84;5053554;28;20049;-35
2021/09/30 07:10:01;;;;;;;5.78;2.53;;;;;;;8.28;89.27;102569.84;5053544;28;20060;-35
2021/09/30 07:12:27;;;;;;;9.13;2.70;;;;;;;8.39;89.21;102577.56;5053252;28;20052;-35
2021/09/30 07:14:52;;;;;;;6.47;2.67;;;;;;;8.45;89.83;102582.28;5053247;28;20059;-34
2021/09/30 07:17:17;;;;;;;7.30;2.87;;;;;;;8.52;90.11;102583.25;5053476;28;20017;-34
2021/09/30 07:19:43;;;;;;;7.77;2.77;;;;;;;8.62;89.31;102583.03;5052873;28;20028;-35
2021/09/30 07:22:09;;;;;;;8.03;2.60;;;;;;;8.65;88.74;102587.25;5053713;28;20043;-35
2021/09/30 07:24:39;;;;;;;10.95;3.08;;;;;;;8.70;89.04;102582.19;5052913;28;20029;-35
2021/09/30 07:27:06;;;;;;;12.55;2.58;;;;;;;8.77;88.27;102591.22;5053111;28;20027;-35
2021/09/30 07:29:31;;;;;;;8.40;2.40;;;;;;;8.82;88.47;102583.44;5052668;28;20033;-35
2021/09/30 07:31:57;;;;;;;8.50;2.60;;;;;;;8.86;87.98;102579.38;5052765;28;20142;-35
2021/09/30 07:34:22;;;;;;;7.30;2.27;;;;;;;8.87;87.96;102582.91;5053352;28;20363;-35
2021/09/30 07:36:47;;;;;;;9.00;2.30;;;;;;;8.72;87.93;102556.69;5053278;28;20031;-35
2021/09/30 07:39:16;;;;;;;9.30;2.90;;;;;;;8.91;87.85;102590.47;5053158;28;20021;-35
2021/09/30 07:41:42;;;;;;;11.52;2.38;;;;;;;8.88;86.99;102571.97;5053342;28;20029;-35
2021/09/30 07:44:08;;;;;;;9.65;2.35;;;;;;;8.99;87.28;102578.81;5053204;28;20425;-35
2021/09/30 07:46:35;;;;;;;8.25;2.78;;;;;;;9.08;87.28;102584.97;5053210;28;20446;-35
2021/09/30 07:49:03;;;;;;;6.75;2.60;;;;;;;9.14;87.19;102582.41;5052844;28;20507;-34
2021/09/30 07:51:29;;;;;;;8.27;2.60;;;;;;;9.14;87.06;102565.38;5053503;28;20445;-34
2021/09/30 07:53:54;;;;;;;12.27;2.45;;;;;;;9.31;86.80;102591.22;5051961;28;20050;-35
2021/09/30 07:56:20;;;;;;;9.67;2.60;;;;;;;9.42;85.99;102593.53;5053111;28;20048;-35
2021/09/30 07:58:45;;;;;;;8.67;2.37;;;;;;;9.50;86.60;102595.31;5052414;28;20021;-35
2021/09/30 08:01:10;;;;;;;7.77;2.70;;;;;;;9.50;86.65;102585.34;5053212;28;20263;-35
2021/09/30 08:03:36;;;;;;;9.17;2.50;;;;;;;9.63;86.26;102594.72;5052609;28;20025;-35
2021/09/30 08:06:01;;;;;;;8.97;2.93;;;;;;;9.72;87.08;102607.13;5053513;28;20017;-35
2021/09/30 08:08:26;;;;;;;7.30;3.10;;;;;;;9.79;85.92;102602.66;5052416;28;20368;-34
2021/09/30 08:10:52;;;;;;;7.17;2.60;;;;;;;9.89;84.53;102603.22;5053220;28;20035;-35
2021/09/30 08:13:18;;;;;;;9.70;3.00;;;;;;;9.96;85.58;102598.78;5052680;28;20449;-35
2021/09/30 08:15:43;;;;;;;6.95;2.40;;;;;;;10.06;84.90;102602.06;5052946;28;20291;-35
2021/09/30 08:18:09;;;;;;;13.70;3.47;;;;;;;10.00;83.89;102591.13;5052823;28;20036;-35
2021/09/30 08:20:41;;;;;;;8.53;2.67;;;;;;;9.94;84.17;102576.50;5052817;28;20075;-35
2021/09/30 08:23:08;;;;;;;6.63;2.20;;;;;;;10.18;84.55;102610.53;5053573;28;20041;-35
2021/09/30 08:25:33;;;;;;;11.40;2.50;;;;;;;10.24;83.93;102595.47;5052557;28;20095;-34
2021/09/30 08:27:58;;;;;;;7.43;2.83;;;;;;;10.31;83.88;102608.06;5052913;28;20111;-34
2021/09/30 08:30:24;;;;;;;10.77;2.90;;;;;;;10.43;83.89;102600.31;5052512;28;20132;-34
2021/09/30 08:32:49;;;;;;;7.53;2.70;;;;;;;10.53;82.40;102600.88;5052176;28;20433;-35
2021/09/30 08:35:14;;;;;;;7.00;2.50;;;;;;;10.66;82.76;102607.50;5052210;28;20516;-35
2021/09/30 08:37:40;;;;;;;9.20;2.70;;;;;;;10.68;81.08;102591.91;5052347;28;20082;-35
2021/09/30 08:40:06;;;;;;;9.20;2.20;;;;;;;10.90;82.92;102607.16;5053353;28;20112;-35
2021/09/30 08:42:32;;;;;;;10.60;2.42;;;;;;;10.83;80.48;102574.63;5055680;28;20017;-35
2021/09/30 08:44:58;;;;;;;10.33;2.33;;;;;;;11.10;81.28;102601.97;5055675;28;20036;-35
2021/09/30 08:47:24;;;;;;;7.35;2.67;;;;;;;11.14;81.56;102605.16;5056215;28;20073;-35
2021/09/30 08:49:49;;;;;;;9.90;2.88;;;;;;;11.21;79.67;102614.16;5056175;28;20100;-35
2021/09/30 08:52:15;;;;;;;8.93;2.20;;;;;;;11.30;80.31;102619.28;5056184;28;20021;-35
2021/09/30 08:54:40;;;;;;;8.20;2.03;;;;;;;11.36;79.58;102601.41;5055756;28;20376;-35
2021/09/30 08:57:06;;;;;;;8.60;2.67;;;;;;;11.62;79.67;102610.84;5056203;28;20619;-35
2021/09/30 08:59:32;;;;;;;8.48;2.38;;;;;;;11.73;78.69;102597.59;5055414;28;20441;-35
2021/09/30 09:02:12;;;;;;;11.27;3.13;;;;;;;11.73;78.85;102592.16;5056060;28;20029;-35
2021/09/30 09:04:55;;;;;;;10.15;2.30;;;;;;;11.77;78.23;102604.28;5055245;28;20113;-35
2021/09/30 09:07:24;;;;;;;7.28;2.35;;;;;;;11.71;77.07;102602.38;5056136;28;20102;-35
2021/09/30 09:09:50;;;;;;;5.97;2.50;;;;;;;11.72;76.22;102606.75;5055270;28;20031;-35
2021/09/30 09:12:16;;;;;;;7.93;2.20;;;;;;;11.62;77.64;102578.31;5055495;28;20100;-35
2021/09/30 09:14:42;;;;;;;12.27;3.42;;;;;;;11.79;78.72;102598.66;5055938;28;20032;-35
2021/09/30 09:17:13;;;;;;;11.50;2.33;;;;;;;11.81;77.15;102611.00;5055231;28;20465;-34
2021/09/30 09:19:45;;;;;;;7.13;2.20;;;;;;;11.75;76.87;102595.50;5055690;28;20029;-35
2021/09/30 09:22:12;;;;;;;6.07;2.25;;;;;;;11.83;75.47;102608.94;5055938;28;20086;-35
2021/09/30 09:25:04;;;;;;;9.73;2.55;;;;;;;11.91;76.64;102601.69;5055409;28;20013;-35
2021/09/30 09:27:44;;;;;;;7.72;2.17;;;;;;;12.02;77.23;102603.88;5055254;28;20457;-35
2021/09/30 09:30:30;;;;;;;8.50;2.13;;;;;;;12.14;76.05;102606.88;5054799;28;20465;-35
2021/09/30 09:33:15;;;;;;;11.65;2.13;;;;;;;12.16;74.87;102608.38;5055104;28;20021;-35
2021/09/30 09:35:43;;;;;;;8.98;2.53;;;;;;;12.10;73.04;102603.72;5055525;28;20028;-35
2021/09/30 09:38:10;;;;;;;5.13;1.85;;;;;;;12.13;72.09;102597.91;5055299;28;20036;-35
2021/09/30 09:40:35;;;;;;;9.43;1.90;;;;;;;12.04;74.14;102580.94;5054572;28;20463;-35
2021/09/30 09:43:23;;;;;;;8.55;2.28;;;;;;;12.23;74.24;102605.69;5055124;28;20056;-35
2021/09/30 09:45:48;;;;;;;7.22;1.90;;;;;;;12.20;72.49;102601.50;5055010;28;20095;-35
2021/09/30 09:48:16;;;;;;;5.17;1.67;;;;;;;12.21;71.77;102605.06;5055023;28;20451;-35
2021/09/30 09:50:41;;;;;;;9.43;1.80;;;;;;;12.21;72.39;102599.63;5054247;28;20024;-35
2021/09/30 09:53:07;;;;;;;6.53;1.60;;;;;;;12.26;73.41;102602.59;5055678;28;20507;-35
2021/09/30 09:55:38;;;;;;;9.32;1.60;;;;;;;12.25;71.61;102601.75;5053452;28;20021;-35
2021/09/30 09:58:08;;;;;;;7.60;1.88;;;;;;;12.26;72.90;102598.00;5054969;28;20028;-35
2021/09/30 10:00:51;;;;;;;5.72;1.70;;;;;;;12.32;72.83;102585.50;5055112;28;20036;-35
2021/09/30 10:03:22;;;;;;;5.88;1.65;;;;;;;12.20;71.92;102559.97;5055010;28;20515;-35
2021/09/30 10:05:49;;;;;;;6.88;1.65;;;;;;;12.39;71.96;102583.66;5054538;28;20051;-35
2021/09/30 10:08:15;;;;;;;6.07;1.65;;;;;;;12.39;71.08;102591.78;5064005;28;20032;-35
2021/09/30 10:10:41;;;;;;;;;;;;;;;12.51;73.01;102583.94;5074740;28;20029;-35
2021/09/30 10:13:07;;;;;;;5.32;1.60;;;;;;;12.41;70.59;102565.31;5073213;28;19908;-35
2021/09/30 10:15:34;;;;;;;9.02;1.77;;;;;;;12.51;70.44;102579.34;5074431;28;20029;-35
2021/09/30 10:18:03;;;;;;;7.78;1.67;;;;;;;12.57;70.16;102581.25;5073957;28;20020;-35
2021/09/30 10:20:30;;;;;;;6.25;1.48;;;;;;;12.64;70.35;102573.16;5074412;28;20367;-35
2021/09/30 10:22:55;;;;;;;13.45;1.85;;;;;;;12.68;69.79;102562.69;5074908;28;20471;-35
2021/09/30 10:25:22;;;;;;;6.88;1.92;;;;;;;12.81;69.71;102565.47;5074806;28;20025;-35
2021/09/30 10:27:55;;;;;;;8.52;1.70;;;;;;;12.79;69.83;102546.69;5074666;28;20032;-35
2021/09/30 10:30:36;;;;;;;8.23;1.45;;;;;;;12.91;69.68;102559.66;5073985;28;20020;-35
2021/09/30 10:33:04;;;;;;;10.57;3.20;;;;;;;12.94;67.26;102568.22;5073909;28;20016;-35
2021/09/30 10:35:33;;;;;;;7.25;1.70;;;;;;;12.91;68.62;102552.34;5072676;28;20020;-35
2021/09/30 10:38:30;;;;;;;7.03;1.35;;;;;;;13.08;66.05;102558.25;5073609;28;20028;-35
2021/09/30 10:41:01;;;;;;;7.30;1.77;;;;;;;13.09;65.23;102568.88;5074319;28;20016;-35
2021/09/30 10:43:28;;;;;;;5.45;1.20;;;;;;;13.11;66.16;102563.25;5074152;28;20028;-35
2021/09/30 10:45:55;;;;;;;6.10;1.48;;;;;;;13.12;64.51;102554.88;5073694;28;20365;-35
2021/09/30 10:48:23;;;;;;;;;;;;;;;13.22;66.44;102557.22;5073177;28;20105;-35
2021/09/30 10:50:52;;;;;;;5.45;1.20;;;;;;;13.13;64.34;102558.47;5073864;28;19944;-35
2021/09/30 10:53:18;;;;;;;6.43;1.50;;;;;;;13.06;65.48;102538.59;5074352;28;20028;-35
2021/09/30 10:55:43;;;;;;;7.22;1.40;;;;;;;13.16;65.00;102558.03;5073578;28;20031;-35
2021/09/30 10:58:21;;;;;;;10.02;1.70;;;;;;;13.16;66.09;102552.59;5073561;28;20413;-35
2021/09/30 11:00:48;;;;;;;5.20;1.50;;;;;;;13.16;65.62;102549.88;5073131;28;20089;-35
2021/09/30 11:03:20;;;;;;;7.88;2.33;;;;;;;13.17;64.54;102556.97;5073643;28;20353;-35
2021/09/30 11:06:05;;;;;;;6.13;1.60;;;;;;;13.24;66.41;102541.56;5073499;28;20020;-35
2021/09/30 11:08:33;;;;;;;9.93;2.08;;;;;;;13.19;66.29;102544.03;5073313;28;20025;-35
2021/09/30 11:11:04;;;;;;;6.35;1.60;;;;;;;13.25;66.23;102548.66;5072932;28;20054;-35
2021/09/30 11:13:43;;;;;;;5.25;1.38;;;;;;;13.19;67.12;102532.34;5073339;28;20040;-35
2021/09/30 11:16:10;;;;;;;6.55;1.80;;;;;;;13.33;66.44;102555.81;5073247;28;20460;-35
2021/09/30 11:18:55;;;;;;;8.73;2.38;;;;;;;13.32;67.37;102543.22;5073950;28;20090;-35
2021/09/30 11:21:29;;;;;;;8.25;1.90;;;;;;;13.31;67.11;102538.84;5071683;28;20049;-35
2021/09/30 11:24:04;;;;;;;8.15;1.55;;;;;;;13.35;67.13;102537.41;5073251;28;20468;-35
2021/09/30 11:26:35;;;;;;;8.02;1.40;;;;;;;13.47;65.97;102549.34;5073091;28;20043;-35
2021/09/30 11:29:22;;;;;;;9.95;1.67;;;;;;;13.50;65.46;102557.03;5073390;28;20032;-35
2021/09/30 11:31:47;;;;;;;;;;;;;;;13.59;67.39;102553.06;5073534;28;20038;-35
2021/09/30 11:34:20;;;;;;;8.70;1.90;;;;;;;13.48;66.62;102520.28;5067393;28;19909;-35
2021/09/30 11:36:46;;;;;;;6.47;1.55;;;;;;;13.62;65.97;102528.22;5053768;28;20349;-35
2021/09/30 11:39:12;;;;;;;8.18;1.50;;;;;;;13.70;65.33;102534.47;5053330;28;20021;-35
2021/09/30 11:41:40;;;;;;;4.82;1.45;;;;;;;13.68;65.12;102528.41;5053449;28;20033;-35
2021/09/30 11:44:06;;;;;;;8.48;1.58;;;;;;;13.74;66.29;102530.28;5052909;28;20028;-35
2021/09/30 11:46:38;;;;;;;6.35;1.63;;;;;;;13.82;67.01;102521.91;5053054;28;20488;-35
2021/09/30 11:49:12;;;;;;;8.70;2.20;;;;;;;13.79;65.58;102525.03;5052586;28;20430;-35
2021/09/30 11:51:41;;;;;;;7.35;1.33;;;;;;;13.82;66.52;102521.91;5052903;28;20103;-35
2021/09/30 11:54:12;;;;;;;9.27;1.67;;;;;;;13.85;65.34;102516.03;5052814;28;20126;-35
2021/09/30 11:56:40;;;;;;;8.43;1.70;;;;;;;13.85;65.01;102511.41;5053572;28;20429;-35
2021/09/30 11:59:07;;;;;;;8.07;1.80;;;;;;;13.96;66.56;102501.81;5053580;28;20025;-35
2021/09/30 12:01:37;;;;;;;5.68;1.25;;;;;;;14.01;64.79;102493.00;5052754;28;20056;-35
2021/09/30 12:04:04;;;;;;;7.07;1.92;;;;;;;13.96;63.42;102482.75;5053373;28;20024;-35
2021/09/30 12:06:41;;;;;;;8.00;2.35;;;;;;;14.04;64.73;102489.84;5034688;28;20512;-35
2021/09/30 12:09:08;;;;;;;7.65;1.50;;;;;;;14.02;64.61;102473.75;5053387;28;20342;-35
2021/09/30 12:11:38;;;;;;;4.80;1.65;;;;;;;14.23;65.00;102488.94;5052355;28;20045;-35
2021/09/30 12:14:05;;;;;;;8.10;2.05;;;;;;;14.26;65.81;102487.69;5053054;28;20040;-35
2021/09/30 12:16:31;;;;;;;8.65;2.00;;;;;;;14.29;64.78;102489.94;5056345;28;20028;-35
2021/09/30 12:19:06;;;;;;;8.73;2.08;;;;;;;14.26;63.71;102479.50;5056540;28;20453;-35
2021/09/30 12:21:38;;;;;;;7.32;1.70;;;;;;;14.17;63.26;102470.75;5055657;28;20045;-35
2021/09/30 12:24:08;;;;;;;5.18;1.38;;;;;;;14.17;62.34;102479.75;5056407;28;20057;-35
2021/09/30 12:26:35;;;;;;;8.00;1.60;;;;;;;14.14;63.29;102476.63;5056593;28;20100;-35
2021/09/30 12:29:01;;;;;;;6.70;1.48;;;;;;;14.11;65.15;102475.19;5056327;28;20095;-35
2021/09/30 12:31:29;;;;;;;6.93;1.35;;;;;;;14.06;62.79;102468.72;5056405;28;20029;-35
2021/09/30 12:33:54;;;;;;;14.75;2.10;;;;;;;13.98;63.84;102455.34;5056277;28;20075;-35
2021/09/30 12:36:20;;;;;;;7.00;1.98;;;;;;;14.08;62.95;102470.16;5057049;28;20028;-35
2021/09/30 12:39:00;;;;;;;9.95;1.83;;;;;;;14.00;63.88;102459.50;5056225;28;20023;-35
2021/09/30 12:41:26;;;;;;;9.23;2.33;;;;;;;14.02;64.02;102462.84;5056338;28;20446;-35
2021/09/30 12:43:52;;;;;;;5.60;1.50;;;;;;;14.02;64.48;102473.75;5055640;28;20105;-35
2021/09/30 12:46:19;;;;;;;6.47;1.80;;;;;;;13.99;63.27;102463.28;5056632;28;20112;-35
2021/09/30 12:48:54;;;;;;;9.18;2.20;;;;;;;13.93;63.71;102471.47;5055910;28;20017;-35
2021/09/30 12:51:23;;;;;;;9.00;2.20;;;;;;;13.79;63.09;102444.31;5055724;28;20021;-35
2021/09/30 12:53:53;;;;;;;8.27;1.95;;;;;;;13.71;64.33;102430.94;5055779;28;20028;-35
2021/09/30 12:56:21;;;;;;;8.13;1.98;;;;;;;13.91;64.54;102460.81;5055616;28;20441;-35
2021/09/30 12:58:48;;;;;;;8.43;1.90;;;;;;;13.92;64.35;102465.19;5055829;28;20480;-35
2021/09/30 13:01:21;;;;;;;7.90;2.30;;;;;;;13.83;63.83;102452.88;5056091;28;20058;-35
2021/09/30 13:04:05;;;;;;;12.85;2.75;;;;;;;13.91;64.41;102452.66;5055081;28;20439;-35
2021/09/30 13:06:31;;;;;;;5.88;2.45;;;;;;;13.85;64.60;102450.75;5055780;28;20040;-35
2021/09/30 13:08:56;;;;;;;;;;;;;;;13.97;65.36;102459.13;5056130;28;20116;-35
2021/09/30 13:11:26;;;;;;;7.23;2.10;;;;;;;13.85;63.71;102446.16;5056355;28;19948;-35
2021/09/30 13:14:13;;;;;;;9.00;2.63;;;;;;;13.86;64.82;102442.41;5055218;28;20302;-35
2021/09/30 13:16:39;;;;;;;6.85;2.70;;;;;;;13.76;63.74;102433.00;5056190;28;20025;-35
2021/09/30 13:19:05;;;;;;;9.55;2.38;;;;;;;13.78;64.16;102429.03;5055073;28;20033;-35
2021/09/30 13:21:30;;;;;;;10.87;3.00;;;;;;;13.88;65.10;102439.47;5055887;28;20067;-35
2021/09/30 13:23:55;;;;;;;5.43;2.40;;;;;;;13.90;65.89;102431.91;5055544;28;20037;-35
2021/09/30 13:26:21;;;;;;;11.73;2.87;;;;;;;13.90;66.85;102431.91;5054519;28;20025;-35
2021/09/30 13:28:46;;;;;;;9.07;3.20;;;;;;;13.93;65.19;102427.94;5055056;28;20294;-35
2021/09/30 13:31:11;;;;;;;5.70;2.60;;;;;;;14.01;66.60;102425.00;5055921;28;20024;-35
2021/09/30 13:33:37;;;;;;;6.30;2.37;;;;;;;14.02;66.19;102419.34;5055001;28;20033;-35
2021/09/30 13:36:02;;;;;;;7.37;2.47;;;;;;;14.06;65.16;102420.59;5054913;28;20032;-35
2021/09/30 13:38:27;;;;;;;10.45;2.88;;;;;;;13.97;65.32;102404.72;5055635;28;20370;-35
2021/09/30 13:40:53;;;;;;;7.13;2.63;;;;;;;14.01;66.14;102409.53;5055749;28;20035;-35
2021/09/30 13:43:18;;;;;;;5.03;1.87;;;;;;;14.06;66.82;102408.88;5054982;28;20638;-35
2021/09/30 13:45:44;;;;;;;8.10;2.28;;;;;;;14.04;65.78;102400.91;5055274;28;20440;-35
2021/09/30 13:48:09;;;;;;;9.68;2.55;;;;;;;14.07;65.17;102394.22;5055569;28;20021;-35
2021/09/30 13:50:35;;;;;;;16.23;2.57;;;;;;;14.06;65.44;102396.09;5054997;28;20342;-36
2021/09/30 13:53:00;;;;;;;7.45;2.40;;;;;;;14.03;65.63;102392.97;5055177;28;20021;-35
2021/09/30 13:55:26;;;;;;;5.57;1.90;;;;;;;14.00;66.05;102377.06;5054535;28;20032;-35
2021/09/30 13:57:52;;;;;;;7.65;1.70;;;;;;;13.89;64.82;102370.44;5055053;28;20102;-35
2021/09/30 14:00:18;;;;;;;13.90;2.35;;;;;;;13.93;65.73;102368.97;5054441;28;20433;-35
2021/09/30 14:02:45;;;;;;;;;;;;;;;14.09;67.07;102376.59;5055838;28;20032;-35
2021/09/30 14:05:12;;;;;;;;;;;;;;;14.15;66.38;102374.91;5055181;28;19912;-35
2021/09/30 14:07:41;;;;;;;5.88;1.60;;;;;;;14.13;66.23;102366.13;5054621;28;19955;-35
2021/09/30 14:10:12;;;;;;;5.75;1.67;;;;;;;14.10;65.81;102369.28;5054184;28;20040;-35
2021/09/30 14:12:37;;;;;;;7.57;1.63;;;;;;;14.14;65.57;102362.34;5054500;28;20025;-35
2021/09/30 14:15:06;;;;;;;9.27;2.13;;;;;;;14.12;65.39;102367.19;5054125;28;20040;-35
2021/09/30 14:17:32;;;;;;;8.00;1.48;;;;;;;14.16;64.87;102358.38;5054079;28;20466;-35
2021/09/30 14:19:57;;;;;;;7.97;1.60;;;;;;;14.20;65.76;102360.66;5054064;28;20027;-35
2021/09/30 14:22:25;;;;;;;8.10;2.17;;;;;;;14.25;64.65;102363.53;5054672;28;20049;-35